Time;durP1;ratioP1;P1;durP2;ratioP2;P2;SDS_P1;SDS_P2;PMS_P1;PMS_P2;Temp;Humidity;BMP_temperature;BMP_pressure;BME280_temperature;BME280_humidity;BME280_pressure;Samples;Min_cycle;Max_cycle;Signal;HPM_P1;HPM_P2
2023/09/09 00:01:42;;;;;;;6.07;3.80;;;;;;;;;;5020046;28;20267;-93
2023/09/09 00:04:09;;;;;;;4.40;4.00;;;;;;;;;;5020501;28;20231;-93
2023/09/09 00:06:36;;;;;;;4.97;3.78;;;;;;;;;;5024530;28;20236;-91
2023/09/09 00:09:04;;;;;;;5.05;3.90;;;;;;;;;;5021783;28;20303;-93
2023/09/09 00:11:33;;;;;;;5.20;3.90;;;;;;;;;;5016813;28;20292;-92
2023/09/09 00:14:01;;;;;;;3.90;3.47;;;;;;;;;;5021338;28;20480;-91
2023/09/09 00:16:34;;;;;;;4.53;3.80;;;;;;;;;;5021477;28;20227;-92
2023/09/09 00:19:01;;;;;;;4.50;4.10;;;;;;;;;;5019943;28;20231;-92
2023/09/09 00:21:29;;;;;;;5.63;4.30;;;;;;;;;;5020318;28;20208;-92
2023/09/09 00:23:56;;;;;;;5.38;3.75;;;;;;;;;;5020356;28;20212;-92
2023/09/09 00:26:25;;;;;;;6.03;4.10;;;;;;;;;;5023347;28;20214;-92
2023/09/09 00:28:54;;;;;;;4.50;3.90;;;;;;;;;;5021966;28;20200;-93
2023/09/09 00:31:21;;;;;;;4.32;3.92;;;;;;;;;;5021437;28;20240;-93
2023/09/09 00:33:48;;;;;;;5.90;3.60;;;;;;;;;;5022859;28;20209;-92
2023/09/09 00:36:15;;;;;;;5.88;3.80;;;;;;;;;;5020561;28;20207;-94
2023/09/09 00:38:42;;;;;;;4.20;3.90;;;;;;;;;;5024722;28;20230;-92
2023/09/09 00:41:10;;;;;;;4.20;3.80;;;;;;;;;;5021340;28;20204;-92
2023/09/09 00:43:37;;;;;;;4.32;3.92;;;;;;;;;;5020412;28;20232;-92
2023/09/09 00:46:06;;;;;;;4.20;3.80;;;;;;;;;;5023668;28;20204;-92
2023/09/09 00:48:33;;;;;;;4.43;4.13;;;;;;;;;;5025155;28;20204;-93
2023/09/09 00:51:01;;;;;;;5.20;4.30;;;;;;;;;;5022463;28;20209;-93
2023/09/09 00:53:28;;;;;;;4.38;3.70;;;;;;;;;;5025473;28;20216;-92
2023/09/09 00:55:56;;;;;;;4.97;4.13;;;;;;;;;;5022088;28;20227;-92
2023/09/09 00:58:23;;;;;;;5.38;4.38;;;;;;;;;;5020160;28;20235;-93
2023/09/09 01:00:51;;;;;;;5.90;3.95;;;;;;;;;;5020083;28;20227;-92
2023/09/09 01:03:19;;;;;;;4.75;4.05;;;;;;;;;;5021809;28;20200;-91
2023/09/09 01:05:46;;;;;;;6.13;3.80;;;;;;;;;;5021677;28;20208;-92
2023/09/09 01:08:14;;;;;;;5.93;4.05;;;;;;;;;;5022015;28;20260;-92
2023/09/09 01:10:41;;;;;;;4.13;3.72;;;;;;;;;;5017057;28;20227;-93
2023/09/09 01:13:08;;;;;;;5.68;4.32;;;;;;;;;;5021032;28;20209;-91
2023/09/09 01:15:37;;;;;;;5.22;4.40;;;;;;;;;;5022184;28;20201;-93
2023/09/09 01:18:05;;;;;;;4.15;3.85;;;;;;;;;;5021419;28;20211;-92
2023/09/09 01:20:37;;;;;;;4.30;3.90;;;;;;;;;;5022901;28;20302;-93
2023/09/09 01:23:06;;;;;;;4.35;3.95;;;;;;;;;;5020609;28;20207;-92
2023/09/09 01:33:57;;;;;;;4.28;3.88;;;;;;;;;;4955153;26;20233;-67
2023/09/09 01:36:24;;;;;;;4.55;4.10;;;;;;;;;;4967313;28;20246;-67
2023/09/09 01:38:52;;;;;;;4.43;4.00;;;;;;;;;;4968911;28;20219;-67
2023/09/09 01:41:20;;;;;;;4.43;4.03;;;;;;;;;;4967726;28;20214;-67
2023/09/09 01:43:47;;;;;;;5.50;4.50;;;;;;;;;;4969812;28;20210;-66
2023/09/09 01:46:14;;;;;;;5.43;3.85;;;;;;;;;;4963129;28;20213;-67
2023/09/09 01:48:41;;;;;;;3.53;3.30;;;;;;;;;;4971123;28;20193;-67
2023/09/09 01:51:08;;;;;;;5.88;4.20;;;;;;;;;;4970825;28;20205;-67
2023/09/09 01:53:35;;;;;;;5.22;3.63;;;;;;;;;;4965663;28;20209;-67
2023/09/09 01:56:04;;;;;;;4.97;4.40;;;;;;;;;;4969793;28;20205;-67
2023/09/09 01:58:31;;;;;;;4.50;4.20;;;;;;;;;;4966779;28;20226;-67
2023/09/09 02:00:58;;;;;;;6.63;3.67;;;;;;;;;;4973168;28;20212;-66
2023/09/09 02:03:25;;;;;;;5.18;3.80;;;;;;;;;;4967157;28;20203;-67
2023/09/09 02:05:52;;;;;;;4.07;3.78;;;;;;;;;;4969330;28;20210;-67
2023/09/09 02:08:19;;;;;;;4.75;4.35;;;;;;;;;;4966216;28;20220;-67
2023/09/09 02:10:50;;;;;;;4.68;4.20;;;;;;;;;;4969790;28;20438;-67
2023/09/09 02:13:19;;;;;;;6.00;4.00;;;;;;;;;;4968395;28;20269;-67
2023/09/09 02:15:46;;;;;;;4.65;4.05;;;;;;;;;;4967699;28;20206;-67
2023/09/09 02:18:13;;;;;;;4.78;4.30;;;;;;;;;;4968189;28;20210;-67
2023/09/09 02:20:40;;;;;;;6.70;4.55;;;;;;;;;;4969178;28;20205;-67
2023/09/09 02:23:07;;;;;;;4.65;4.25;;;;;;;;;;4971989;28;20221;-67
2023/09/09 02:25:35;;;;;;;4.80;4.35;;;;;;;;;;4966007;28;20213;-67
2023/09/09 02:28:02;;;;;;;5.57;4.22;;;;;;;;;;4967903;28;20295;-66
2023/09/09 02:30:31;;;;;;;5.13;4.05;;;;;;;;;;4968267;28;20211;-67
2023/09/09 02:32:58;;;;;;;7.32;4.50;;;;;;;;;;4970845;28;20256;-67
2023/09/09 02:35:25;;;;;;;5.60;4.40;;;;;;;;;;4966107;28;20198;-72
2023/09/09 02:37:52;;;;;;;4.57;4.18;;;;;;;;;;4964886;28;20206;-72
2023/09/09 02:40:20;;;;;;;5.90;4.72;;;;;;;;;;4964620;28;20245;-73
2023/09/09 02:42:47;;;;;;;5.28;4.72;;;;;;;;;;4963597;28;22172;-73
2023/09/09 02:45:14;;;;;;;4.95;4.45;;;;;;;;;;4962931;28;20213;-67
2023/09/09 02:47:43;;;;;;;4.90;4.50;;;;;;;;;;4965527;28;20203;-67
2023/09/09 02:50:11;;;;;;;4.97;4.55;;;;;;;;;;4966631;28;20277;-68
2023/09/09 02:52:38;;;;;;;5.40;4.43;;;;;;;;;;4964900;28;20213;-67
2023/09/09 02:55:06;;;;;;;4.72;4.30;;;;;;;;;;4965625;28;20292;-67
2023/09/09 02:57:33;;;;;;;4.82;4.32;;;;;;;;;;4961495;28;20213;-67
2023/09/09 03:00:00;;;;;;;5.53;5.03;;;;;;;;;;4962002;28;20225;-67
2023/09/09 03:02:27;;;;;;;5.32;4.50;;;;;;;;;;4962491;28;20211;-67
2023/09/09 03:04:56;;;;;;;4.70;4.30;;;;;;;;;;4959981;28;20234;-72
2023/09/09 03:07:23;;;;;;;5.40;4.53;;;;;;;;;;4966504;28;20215;-73
2023/09/09 03:09:50;;;;;;;4.80;4.40;;;;;;;;;;4962798;28;20203;-73
2023/09/09 03:12:20;;;;;;;5.60;4.75;;;;;;;;;;4960964;28;20216;-73
2023/09/09 03:14:48;;;;;;;4.63;4.28;;;;;;;;;;4962080;28;20277;-73
2023/09/09 03:17:15;;;;;;;4.72;4.28;;;;;;;;;;4967347;28;20210;-72
2023/09/09 03:19:42;;;;;;;5.15;4.70;;;;;;;;;;4963300;28;20237;-72
2023/09/09 03:22:11;;;;;;;5.53;4.68;;;;;;;;;;4964092;28;20205;-72
2023/09/09 03:24:38;;;;;;;5.07;4.68;;;;;;;;;;4965384;28;20230;-72
2023/09/09 03:27:05;;;;;;;5.25;4.75;;;;;;;;;;4969687;28;20205;-71
2023/09/09 03:29:32;;;;;;;5.20;4.70;;;;;;;;;;4968679;28;20202;-73
2023/09/09 03:31:59;;;;;;;5.38;4.55;;;;;;;;;;4965586;28;20230;-72
2023/09/09 03:34:27;;;;;;;5.78;4.53;;;;;;;;;;4966596;28;20233;-72
2023/09/09 03:36:54;;;;;;;5.68;5.07;;;;;;;;;;4970108;28;20209;-72
2023/09/09 03:39:23;;;;;;;5.30;4.50;;;;;;;;;;4970867;28;20238;-71
2023/09/09 03:41:50;;;;;;;5.43;4.65;;;;;;;;;;4969670;28;20212;-72
2023/09/09 03:44:17;;;;;;;5.43;4.85;;;;;;;;;;4967095;28;20206;-72
2023/09/09 03:46:44;;;;;;;5.18;4.63;;;;;;;;;;4969490;28;20206;-67
2023/09/09 03:49:11;;;;;;;5.32;4.85;;;;;;;;;;4969846;28;20210;-67
2023/09/09 03:51:38;;;;;;;4.88;4.40;;;;;;;;;;4962072;28;20210;-67
2023/09/09 03:54:05;;;;;;;5.10;4.70;;;;;;;;;;4968808;28;20238;-67
2023/09/09 03:56:34;;;;;;;5.05;4.65;;;;;;;;;;4963751;28;20221;-67
2023/09/09 03:59:01;;;;;;;5.13;4.72;;;;;;;;;;4967485;28;20201;-68
2023/09/09 04:01:29;;;;;;;4.78;4.30;;;;;;;;;;4964826;28;20206;-67
2023/09/09 04:03:56;;;;;;;4.93;4.40;;;;;;;;;;4958894;28;20214;-67
2023/09/09 04:06:24;;;;;;;9.02;4.70;;;;;;;;;;4969388;28;20274;-68
2023/09/09 04:08:55;;;;;;;4.57;4.18;;;;;;;;;;4969906;28;20206;-67
2023/09/09 04:11:22;;;;;;;5.03;4.63;;;;;;;;;;4972405;28;20209;-68
2023/09/09 04:13:51;;;;;;;6.35;4.43;;;;;;;;;;4963709;28;20209;-67
2023/09/09 04:16:18;;;;;;;5.22;4.80;;;;;;;;;;4964257;28;21804;-68
2023/09/09 04:18:45;;;;;;;5.30;4.80;;;;;;;;;;4972354;28;20202;-68
2023/09/09 04:21:12;;;;;;;8.25;5.22;;;;;;;;;;4967244;28;20226;-67
2023/09/09 04:23:40;;;;;;;5.57;4.97;;;;;;;;;;4966455;28;20245;-67
2023/09/09 04:26:07;;;;;;;7.45;4.70;;;;;;;;;;4967468;28;20228;-68
2023/09/09 04:28:34;;;;;;;6.40;4.82;;;;;;;;;;4971025;28;20234;-68
2023/09/09 04:31:03;;;;;;;5.72;5.20;;;;;;;;;;4962187;28;20204;-67
2023/09/09 04:33:30;;;;;;;6.10;5.35;;;;;;;;;;4968866;28;20249;-67
2023/09/09 04:35:57;;;;;;;5.38;4.88;;;;;;;;;;4966610;28;20298;-67
2023/09/09 04:38:24;;;;;;;5.68;5.20;;;;;;;;;;4965369;28;20253;-67
2023/09/09 04:40:51;;;;;;;6.25;5.18;;;;;;;;;;4963666;28;20243;-67
2023/09/09 04:43:20;;;;;;;5.63;5.13;;;;;;;;;;4964057;28;20221;-67
2023/09/09 04:45:47;;;;;;;5.65;5.15;;;;;;;;;;4960621;28;20266;-67
2023/09/09 04:48:16;;;;;;;6.05;5.32;;;;;;;;;;4957834;28;20201;-67
2023/09/09 04:50:43;;;;;;;5.32;4.82;;;;;;;;;;4959346;28;20217;-68
2023/09/09 04:53:10;;;;;;;5.68;5.18;;;;;;;;;;4960749;28;20213;-68
2023/09/09 04:55:37;;;;;;;7.55;5.18;;;;;;;;;;4961194;28;20214;-67
2023/09/09 04:58:04;;;;;;;5.50;5.00;;;;;;;;;;4957437;28;20213;-68
2023/09/09 05:00:31;;;;;;;6.05;5.53;;;;;;;;;;4964980;28;20222;-69
2023/09/09 05:02:58;;;;;;;5.95;4.88;;;;;;;;;;4960189;28;20220;-67
2023/09/09 05:05:27;;;;;;;6.22;5.45;;;;;;;;;;4967209;28;20212;-67
2023/09/09 05:07:54;;;;;;;8.18;5.50;;;;;;;;;;4970988;28;20202;-68
2023/09/09 05:10:22;;;;;;;7.30;5.35;;;;;;;;;;4971946;28;20197;-67
2023/09/09 05:12:49;;;;;;;5.57;5.05;;;;;;;;;;4966823;28;20292;-67
2023/09/09 05:15:17;;;;;;;5.60;4.88;;;;;;;;;;4971230;28;20208;-68
2023/09/09 05:17:44;;;;;;;5.85;5.35;;;;;;;;;;4969371;28;20213;-67
2023/09/09 05:20:12;;;;;;;6.13;5.53;;;;;;;;;;4967149;28;20222;-67
2023/09/09 05:22:40;;;;;;;6.60;5.90;;;;;;;;;;4970820;28;20228;-67
2023/09/09 05:25:08;;;;;;;7.13;5.65;;;;;;;;;;4967753;28;20211;-67
2023/09/09 05:27:35;;;;;;;6.22;5.55;;;;;;;;;;4971272;28;20214;-67
2023/09/09 05:30:02;;;;;;;5.75;5.25;;;;;;;;;;4970657;28;20210;-67
2023/09/09 05:32:29;;;;;;;6.05;5.43;;;;;;;;;;4964207;28;20245;-67
2023/09/09 05:34:56;;;;;;;7.53;5.40;;;;;;;;;;4963781;28;20210;-68
2023/09/09 05:37:26;;;;;;;6.10;5.50;;;;;;;;;;4958592;28;20202;-67
2023/09/09 05:39:54;;;;;;;5.95;5.47;;;;;;;;;;4958501;28;20222;-67
2023/09/09 05:42:22;;;;;;;5.75;5.28;;;;;;;;;;4963931;28;20278;-66
2023/09/09 05:44:49;;;;;;;5.38;4.88;;;;;;;;;;4966588;28;20195;-67
2023/09/09 05:47:16;;;;;;;6.30;5.70;;;;;;;;;;4964646;28;20206;-67
2023/09/09 05:49:43;;;;;;;6.57;5.97;;;;;;;;;;4965285;28;20195;-68
2023/09/09 05:52:11;;;;;;;7.32;6.22;;;;;;;;;;4965517;28;20214;-68
2023/09/09 05:54:38;;;;;;;7.65;5.85;;;;;;;;;;4967064;28;20195;-67
2023/09/09 05:57:08;;;;;;;10.15;5.72;;;;;;;;;;4959931;28;20220;-67
2023/09/09 05:59:35;;;;;;;7.03;5.80;;;;;;;;;;4960599;28;20262;-67
2023/09/09 06:02:02;;;;;;;6.88;6.00;;;;;;;;;;4964785;28;20212;-68
2023/09/09 06:04:30;;;;;;;6.18;5.53;;;;;;;;;;4961758;28;20217;-67
2023/09/09 06:06:57;;;;;;;6.43;5.32;;;;;;;;;;4964553;28;20302;-67
2023/09/09 06:09:25;;;;;;;6.05;5.50;;;;;;;;;;4965641;28;20207;-68
2023/09/09 06:11:52;;;;;;;10.13;6.32;;;;;;;;;;4966727;28;20206;-69
2023/09/09 06:14:21;;;;;;;7.10;6.32;;;;;;;;;;4964951;28;20214;-67
2023/09/09 06:16:48;;;;;;;7.47;5.95;;;;;;;;;;4962518;28;20209;-67
2023/09/09 06:19:15;;;;;;;7.68;5.80;;;;;;;;;;4961358;28;20207;-67
2023/09/09 06:21:42;;;;;;;10.48;6.65;;;;;;;;;;4960934;28;20233;-67
2023/09/09 06:24:12;;;;;;;8.27;6.22;;;;;;;;;;4960642;28;20210;-67
2023/09/09 06:26:39;;;;;;;8.35;5.90;;;;;;;;;;4962926;28;20210;-67
2023/09/09 06:29:06;;;;;;;6.25;5.65;;;;;;;;;;4960491;28;20206;-69
2023/09/09 06:31:35;;;;;;;6.84;5.66;;;;;;;;;;4930295;28;1058326;-68
2023/09/09 06:34:02;;;;;;;5.57;5.07;;;;;;;;;;4968622;28;20201;-67
2023/09/09 06:36:29;;;;;;;6.07;5.55;;;;;;;;;;4963415;28;20229;-67
2023/09/09 06:38:56;;;;;;;6.38;5.72;;;;;;;;;;4962700;28;20199;-67
2023/09/09 06:41:24;;;;;;;5.90;5.30;;;;;;;;;;4964415;28;20233;-67
2023/09/09 06:43:51;;;;;;;6.22;5.72;;;;;;;;;;4964284;28;20199;-67
2023/09/09 06:46:18;;;;;;;6.70;5.47;;;;;;;;;;4964568;28;20210;-67
2023/09/09 06:48:46;;;;;;;5.60;5.20;;;;;;;;;;4965783;28;20221;-67
2023/09/09 06:51:13;;;;;;;5.60;5.10;;;;;;;;;;4964830;28;20202;-66
2023/09/09 06:53:40;;;;;;;5.65;5.15;;;;;;;;;;4963986;28;20211;-67
2023/09/09 06:56:08;;;;;;;6.70;5.90;;;;;;;;;;4963343;28;20213;-66
2023/09/09 06:58:35;;;;;;;6.25;5.65;;;;;;;;;;4968188;28;20206;-67
2023/09/09 07:01:03;;;;;;;7.68;6.97;;;;;;;;;;4967352;28;20222;-67
2023/09/09 07:03:31;;;;;;;7.15;6.25;;;;;;;;;;4964935;28;20262;-66
2023/09/09 07:06:01;;;;;;;8.93;6.50;;;;;;;;;;4963936;28;20207;-67
2023/09/09 07:08:28;;;;;;;7.60;6.80;;;;;;;;;;4965007;28;20210;-67
2023/09/09 07:10:56;;;;;;;8.18;6.68;;;;;;;;;;4959591;28;20213;-66
2023/09/09 07:13:24;;;;;;;7.25;6.47;;;;;;;;;;4962977;28;20238;-66
2023/09/09 07:15:52;;;;;;;6.85;6.32;;;;;;;;;;4962037;28;20209;-66
2023/09/09 07:18:19;;;;;;;7.60;6.65;;;;;;;;;;4960387;28;20218;-66
2023/09/09 07:20:46;;;;;;;6.75;6.03;;;;;;;;;;4960065;28;20233;-66
2023/09/09 07:23:15;;;;;;;7.43;6.35;;;;;;;;;;4966401;28;20233;-66
2023/09/09 07:25:42;;;;;;;6.68;5.93;;;;;;;;;;4963948;28;20206;-65
2023/09/09 07:28:10;;;;;;;7.97;6.15;;;;;;;;;;4964471;28;20210;-65
2023/09/09 07:30:38;;;;;;;6.18;5.65;;;;;;;;;;4967633;28;20210;-65
2023/09/09 07:33:05;;;;;;;9.10;7.10;;;;;;;;;;4962067;28;20245;-64
2023/09/09 07:35:32;;;;;;;8.75;6.55;;;;;;;;;;4960648;28;20214;-64
2023/09/09 07:38:00;;;;;;;8.32;6.22;;;;;;;;;;4965716;28;20203;-66
2023/09/09 07:40:29;;;;;;;7.72;6.32;;;;;;;;;;4967773;28;20253;-67
2023/09/09 07:42:56;;;;;;;8.38;6.07;;;;;;;;;;4965613;28;20261;-65
2023/09/09 07:45:23;;;;;;;6.18;5.68;;;;;;;;;;4968280;28;20205;-65
2023/09/09 07:47:51;;;;;;;6.70;6.10;;;;;;;;;;4964699;28;20410;-66
2023/09/09 07:50:18;;;;;;;6.20;5.70;;;;;;;;;;4964833;28;20209;-65
2023/09/09 07:52:45;;;;;;;6.38;5.78;;;;;;;;;;4963157;28;20210;-65
2023/09/09 07:55:12;;;;;;;7.75;5.85;;;;;;;;;;4960401;28;20210;-65
2023/09/09 07:57:40;;;;;;;7.13;5.68;;;;;;;;;;4962539;28;20226;-65
2023/09/09 08:00:08;;;;;;;5.97;5.43;;;;;;;;;;4959016;28;20214;-65
2023/09/09 08:02:36;;;;;;;7.55;5.63;;;;;;;;;;4963519;28;20333;-64
2023/09/09 08:05:03;;;;;;;6.80;5.75;;;;;;;;;;4958568;28;20202;-65
2023/09/09 08:07:30;;;;;;;7.15;5.60;;;;;;;;;;4961190;28;20221;-65
2023/09/09 08:09:57;;;;;;;7.28;5.90;;;;;;;;;;4964628;28;20210;-65
2023/09/09 08:12:25;;;;;;;7.20;5.45;;;;;;;;;;4958481;28;20302;-65
2023/09/09 08:15:05;;;;;;;5.65;5.20;;;;;;;;;;4966535;28;20210;-64
2023/09/09 08:17:32;;;;;;;5.40;5.00;;;;;;;;;;4958781;28;20206;-64
2023/09/09 08:19:59;;;;;;;5.97;5.00;;;;;;;;;;4954691;28;20220;-64
2023/09/09 08:22:28;;;;;;;6.13;5.07;;;;;;;;;;4960808;28;20238;-65
2023/09/09 08:24:55;;;;;;;6.30;5.63;;;;;;;;;;4954872;28;20238;-64
2023/09/09 08:27:22;;;;;;;7.05;5.40;;;;;;;;;;4958565;28;20206;-64
2023/09/09 08:29:49;;;;;;;7.05;5.47;;;;;;;;;;4968506;28;20210;-65
2023/09/09 08:32:18;;;;;;;5.70;5.05;;;;;;;;;;4962249;28;20241;-65
2023/09/09 08:34:45;;;;;;;6.95;5.38;;;;;;;;;;4963629;28;20214;-64
2023/09/09 08:37:12;;;;;;;6.50;5.25;;;;;;;;;;4962525;28;20203;-65
2023/09/09 08:39:39;;;;;;;7.60;5.80;;;;;;;;;;4960879;28;20209;-65
2023/09/09 08:42:11;;;;;;;10.68;5.80;;;;;;;;;;4960831;28;20228;-65
2023/09/09 08:44:46;;;;;;;8.45;5.32;;;;;;;;;;4963634;28;20221;-64
2023/09/09 08:47:13;;;;;;;7.72;5.18;;;;;;;;;;4965941;28;20209;-69
2023/09/09 08:49:43;;;;;;;8.15;5.78;;;;;;;;;;4965333;28;20214;-69
2023/09/09 08:52:12;;;;;;;8.63;5.55;;;;;;;;;;4961950;28;20206;-69
2023/09/09 08:54:40;;;;;;;5.40;4.90;;;;;;;;;;4971807;28;20214;-69
2023/09/09 08:57:07;;;;;;;8.50;5.72;;;;;;;;;;4969162;28;20201;-70
2023/09/09 08:59:35;;;;;;;7.32;5.43;;;;;;;;;;4967514;28;20210;-69
2023/09/09 09:02:03;;;;;;;5.70;4.95;;;;;;;;;;4965864;28;20228;-69
2023/09/09 09:04:32;;;;;;;7.35;5.43;;;;;;;;;;4968313;28;20210;-69
2023/09/09 09:07:02;;;;;;;5.38;4.57;;;;;;;;;;4958890;28;20209;-69
2023/09/09 09:09:29;;;;;;;6.53;5.22;;;;;;;;;;4962318;28;20214;-69
2023/09/09 09:11:57;;;;;;;7.53;5.20;;;;;;;;;;4960617;28;20203;-69
2023/09/09 09:14:24;;;;;;;6.88;4.78;;;;;;;;;;4958659;28;20210;-69
2023/09/09 09:16:52;;;;;;;7.22;5.43;;;;;;;;;;4969870;28;20203;-69
2023/09/09 09:19:21;;;;;;;7.75;5.25;;;;;;;;;;4960844;28;20289;-69
2023/09/09 09:21:49;;;;;;;7.35;4.95;;;;;;;;;;4960962;28;20234;-69
2023/09/09 09:24:22;;;;;;;5.10;4.63;;;;;;;;;;4959053;28;20538;-69
2023/09/09 09:26:49;;;;;;;5.13;4.65;;;;;;;;;;4961576;28;20213;-70
2023/09/09 09:29:16;;;;;;;5.43;4.32;;;;;;;;;;4961543;28;20215;-69
2023/09/09 09:31:51;;;;;;;5.13;4.72;;;;;;;;;;4965786;28;20209;-70
2023/09/09 09:34:19;;;;;;;5.85;4.50;;;;;;;;;;4962353;28;20216;-69
2023/09/09 09:36:47;;;;;;;6.75;4.65;;;;;;;;;;4965464;28;20222;-69
2023/09/09 09:39:15;;;;;;;5.80;4.30;;;;;;;;;;4964382;28;20199;-69
2023/09/09 09:41:44;;;;;;;6.55;4.60;;;;;;;;;;4962945;28;20222;-69
2023/09/09 09:44:21;;;;;;;6.07;4.78;;;;;;;;;;4961019;28;20203;-70
2023/09/09 09:47:03;;;;;;;4.70;4.30;;;;;;;;;;4959821;28;20219;-69
2023/09/09 09:49:36;;;;;;;7.05;4.72;;;;;;;;;;4963545;28;20210;-69
2023/09/09 09:52:04;;;;;;;4.28;3.90;;;;;;;;;;4965017;28;20212;-69
2023/09/09 09:54:32;;;;;;;5.70;4.32;;;;;;;;;;4964632;28;20206;-70
2023/09/09 09:57:01;;;;;;;6.97;4.38;;;;;;;;;;4966614;28;20206;-69
2023/09/09 09:59:31;;;;;;;7.88;4.35;;;;;;;;;;4969786;28;20214;-69
2023/09/09 10:01:58;;;;;;;6.35;4.20;;;;;;;;;;4967531;28;20230;-70
2023/09/09 10:04:26;;;;;;;4.53;4.10;;;;;;;;;;4966231;28;20208;-69
2023/09/09 10:06:56;;;;;;;4.65;4.10;;;;;;;;;;4965086;28;20224;-70
2023/09/09 10:09:25;;;;;;;4.60;4.20;;;;;;;;;;4960944;28;20206;-69
2023/09/09 10:11:56;;;;;;;4.43;4.07;;;;;;;;;;4971069;28;20199;-69
2023/09/09 10:14:26;;;;;;;4.43;4.03;;;;;;;;;;4961244;28;20220;-70
2023/09/09 10:16:53;;;;;;;3.88;3.40;;;;;;;;;;4968565;28;20206;-70
2023/09/09 10:19:21;;;;;;;7.72;4.03;;;;;;;;;;4965964;28;20212;-70
2023/09/09 10:21:49;;;;;;;7.32;3.90;;;;;;;;;;4959800;28;20222;-69
2023/09/09 10:24:17;;;;;;;4.30;3.90;;;;;;;;;;4962662;28;20483;-70
2023/09/09 10:26:44;;;;;;;4.30;3.90;;;;;;;;;;4966728;28;20217;-70
2023/09/09 10:29:11;;;;;;;4.20;3.80;;;;;;;;;;4970379;28;20206;-70
2023/09/09 10:31:41;;;;;;;6.05;4.15;;;;;;;;;;4962702;28;20207;-70
2023/09/09 10:34:10;;;;;;;6.00;3.83;;;;;;;;;;4966008;28;20203;-69
2023/09/09 10:36:37;;;;;;;5.35;3.75;;;;;;;;;;4967914;28;20210;-69
2023/09/09 10:39:05;;;;;;;7.00;3.95;;;;;;;;;;4962137;28;20276;-69
2023/09/09 10:41:32;;;;;;;3.75;3.45;;;;;;;;;;4963628;28;20240;-69
2023/09/09 10:43:59;;;;;;;4.07;3.47;;;;;;;;;;4963336;28;20226;-70
2023/09/09 10:46:33;;;;;;;3.90;3.60;;;;;;;;;;4968870;28;20229;-69
2023/09/09 10:49:03;;;;;;;4.50;3.42;;;;;;;;;;4965152;28;20198;-69
2023/09/09 10:51:30;;;;;;;4.15;3.75;;;;;;;;;;4963760;28;20206;-69
2023/09/09 10:54:08;;;;;;;4.20;3.83;;;;;;;;;;4965310;28;20222;-69
2023/09/09 10:56:35;;;;;;;4.18;3.63;;;;;;;;;;4963750;28;20210;-70
2023/09/09 10:59:16;;;;;;;4.35;3.95;;;;;;;;;;4963909;28;20202;-69
2023/09/09 11:01:43;;;;;;;7.13;3.70;;;;;;;;;;4963543;28;20233;-69
2023/09/09 11:04:20;;;;;;;4.38;3.85;;;;;;;;;;4963484;28;20207;-69
2023/09/09 11:06:59;;;;;;;5.80;3.63;;;;;;;;;;4969237;28;20202;-69
2023/09/09 11:09:29;;;;;;;5.07;3.65;;;;;;;;;;4959272;28;20203;-68
2023/09/09 11:11:57;;;;;;;5.43;3.67;;;;;;;;;;4963604;28;20273;-69
2023/09/09 11:14:29;;;;;;;7.20;4.25;;;;;;;;;;4963848;28;20203;-69
2023/09/09 11:16:56;;;;;;;8.00;4.32;;;;;;;;;;4963568;28;20206;-69
2023/09/09 11:19:25;;;;;;;5.30;4.05;;;;;;;;;;4963315;28;20229;-69
2023/09/09 11:21:53;;;;;;;7.20;4.00;;;;;;;;;;4962050;28;20234;-69
2023/09/09 11:24:20;;;;;;;8.40;3.83;;;;;;;;;;4964555;28;20206;-69
2023/09/09 11:26:48;;;;;;;6.30;4.10;;;;;;;;;;4966468;28;20210;-69
2023/09/09 11:29:16;;;;;;;4.82;3.40;;;;;;;;;;4968460;28;20206;-69
2023/09/09 11:31:42;;;;;;;5.97;3.50;;;;;;;;;;4960189;28;20198;-69
2023/09/09 11:34:09;;;;;;;6.60;3.80;;;;;;;;;;4961986;28;20358;-68
2023/09/09 11:36:38;;;;;;;7.53;3.60;;;;;;;;;;4966406;28;20214;-69
2023/09/09 11:39:08;;;;;;;5.47;3.50;;;;;;;;;;4961280;28;20213;-69
2023/09/09 11:41:36;;;;;;;5.35;3.50;;;;;;;;;;4961333;28;20244;-69
2023/09/09 11:44:04;;;;;;;7.10;3.80;;;;;;;;;;4963691;28;20199;-69
2023/09/09 11:46:33;;;;;;;6.82;3.60;;;;;;;;;;4961417;28;20219;-69
2023/09/09 11:49:00;;;;;;;3.63;3.25;;;;;;;;;;4960428;28;20206;-69
2023/09/09 11:51:28;;;;;;;5.63;3.70;;;;;;;;;;4964246;28;20206;-69
2023/09/09 11:53:56;;;;;;;3.53;3.17;;;;;;;;;;4964733;28;20203;-69
2023/09/09 11:56:23;;;;;;;6.95;3.83;;;;;;;;;;4964266;28;20199;-69
2023/09/09 11:58:50;;;;;;;4.72;3.60;;;;;;;;;;4965612;28;20213;-69
2023/09/09 12:01:19;;;;;;;8.63;3.80;;;;;;;;;;4961930;28;20209;-68
2023/09/09 12:03:48;;;;;;;7.35;3.60;;;;;;;;;;4955107;29;20215;-68
2023/09/09 12:06:16;;;;;;;7.47;3.90;;;;;;;;;;4958121;28;20206;-68
2023/09/09 12:08:43;;;;;;;9.15;4.00;;;;;;;;;;4964665;28;20213;-69
2023/09/09 12:11:14;;;;;;;7.63;3.70;;;;;;;;;;4965443;28;20214;-68
2023/09/09 12:13:41;;;;;;;9.80;3.90;;;;;;;;;;4961878;28;20202;-69
2023/09/09 12:16:09;;;;;;;8.75;4.20;;;;;;;;;;4964484;28;20209;-69
2023/09/09 12:18:36;;;;;;;9.55;4.00;;;;;;;;;;4962631;28;20210;-70
2023/09/09 12:21:05;;;;;;;7.28;3.55;;;;;;;;;;4968133;28;20226;-70
2023/09/09 12:23:32;;;;;;;10.00;3.55;;;;;;;;;;4964606;28;20236;-69
2023/09/09 12:26:08;;;;;;;11.55;4.13;;;;;;;;;;4959994;28;20206;-70
2023/09/09 12:28:36;;;;;;;8.50;3.80;;;;;;;;;;4962837;28;20197;-70
2023/09/09 12:31:04;;;;;;;11.75;3.78;;;;;;;;;;4964524;28;20213;-70
2023/09/09 12:33:38;;;;;;;5.22;3.63;;;;;;;;;;4957096;28;20239;-70
2023/09/09 12:36:05;;;;;;;8.45;3.80;;;;;;;;;;4958903;28;20205;-69
2023/09/09 12:38:38;;;;;;;6.97;3.55;;;;;;;;;;4965792;28;20198;-69
2023/09/09 12:41:06;;;;;;;7.72;3.70;;;;;;;;;;4957801;28;20241;-70
2023/09/09 12:43:34;;;;;;;11.82;3.85;;;;;;;;;;4960607;28;20232;-70
2023/09/09 12:46:05;;;;;;;7.78;4.15;;;;;;;;;;4968900;28;20293;-65
2023/09/09 12:48:33;;;;;;;8.50;3.95;;;;;;;;;;4959925;28;20220;-65
2023/09/09 12:51:00;;;;;;;9.98;4.10;;;;;;;;;;4965906;28;20211;-65
2023/09/09 12:53:27;;;;;;;9.73;3.88;;;;;;;;;;4959573;28;20207;-64
2023/09/09 12:55:54;;;;;;;16.23;4.30;;;;;;;;;;4969999;28;20205;-65
2023/09/09 12:58:21;;;;;;;8.30;3.67;;;;;;;;;;4962024;28;20219;-64
2023/09/09 13:00:48;;;;;;;7.57;3.90;;;;;;;;;;4964287;28;20215;-64
2023/09/09 13:03:17;;;;;;;8.55;3.92;;;;;;;;;;4966655;28;20225;-65
2023/09/09 13:05:44;;;;;;;8.93;3.63;;;;;;;;;;4964302;28;20204;-65
2023/09/09 13:08:11;;;;;;;8.25;3.70;;;;;;;;;;4964525;28;20293;-65
2023/09/09 13:10:38;;;;;;;7.60;3.58;;;;;;;;;;4959542;28;20211;-65
2023/09/09 13:13:05;;;;;;;12.65;3.90;;;;;;;;;;4965532;28;20212;-65
2023/09/09 13:15:33;;;;;;;7.82;3.65;;;;;;;;;;4959673;28;20202;-64
2023/09/09 13:18:00;;;;;;;9.43;3.55;;;;;;;;;;4965127;28;20205;-65
2023/09/09 13:20:29;;;;;;;9.60;3.92;;;;;;;;;;4961439;28;20210;-65
2023/09/09 13:22:56;;;;;;;10.25;3.88;;;;;;;;;;4968012;28;20226;-64
2023/09/09 13:25:23;;;;;;;7.78;3.95;;;;;;;;;;4965941;28;20208;-64
2023/09/09 13:27:51;;;;;;;9.93;3.88;;;;;;;;;;4962912;28;20216;-64
2023/09/09 13:30:18;;;;;;;10.32;4.18;;;;;;;;;;4969716;28;20226;-64
2023/09/09 13:32:45;;;;;;;11.55;4.10;;;;;;;;;;4969777;28;20231;-64
2023/09/09 13:35:12;;;;;;;10.35;3.67;;;;;;;;;;4971079;28;20206;-64
2023/09/09 13:37:41;;;;;;;18.67;4.25;;;;;;;;;;4968736;28;20241;-66
2023/09/09 13:40:09;;;;;;;10.55;3.97;;;;;;;;;;4968384;28;20273;-65
2023/09/09 13:42:36;;;;;;;11.57;4.10;;;;;;;;;;4970640;28;20234;-65
2023/09/09 13:45:03;;;;;;;11.95;4.13;;;;;;;;;;4962834;28;20203;-65
2023/09/09 13:47:30;;;;;;;9.65;4.20;;;;;;;;;;4971417;28;20206;-65
2023/09/09 13:50:02;;;;;;;8.00;3.85;;;;;;;;;;4968858;28;20208;-65
2023/09/09 13:52:29;;;;;;;9.65;3.65;;;;;;;;;;4971165;28;20289;-65
2023/09/09 13:54:58;;;;;;;11.00;4.03;;;;;;;;;;4968607;28;20208;-64
2023/09/09 13:57:25;;;;;;;9.52;4.10;;;;;;;;;;4970128;28;20213;-68
2023/09/09 13:59:52;;;;;;;13.15;4.13;;;;;;;;;;4968062;28;20206;-69
2023/09/09 14:02:19;;;;;;;13.38;4.15;;;;;;;;;;4965688;28;20230;-69
2023/09/09 14:04:46;;;;;;;13.82;3.67;;;;;;;;;;4964071;28;20203;-70
2023/09/09 14:07:13;;;;;;;16.80;4.20;;;;;;;;;;4970192;28;20202;-70
2023/09/09 14:09:40;;;;;;;13.82;4.63;;;;;;;;;;4969428;28;20214;-70
2023/09/09 14:12:09;;;;;;;17.15;4.15;;;;;;;;;;4967497;28;20217;-70
2023/09/09 14:14:36;;;;;;;12.23;3.90;;;;;;;;;;4964039;28;20213;-70
2023/09/09 14:17:04;;;;;;;14.00;4.45;;;;;;;;;;4970271;28;20206;-69
2023/09/09 14:19:31;;;;;;;12.45;4.15;;;;;;;;;;4968264;28;20214;-70
2023/09/09 14:21:58;;;;;;;15.48;4.97;;;;;;;;;;4962835;28;20214;-69
2023/09/09 14:24:25;;;;;;;8.75;4.05;;;;;;;;;;4966711;28;20230;-69
2023/09/09 14:26:53;;;;;;;9.52;3.75;;;;;;;;;;4962482;28;20270;-69
2023/09/09 14:29:21;;;;;;;14.75;3.90;;;;;;;;;;4964092;28;20206;-69
2023/09/09 14:31:48;;;;;;;6.65;4.10;;;;;;;;;;4966074;28;20221;-70
2023/09/09 14:34:15;;;;;;;11.18;4.03;;;;;;;;;;4968960;28;20194;-70
2023/09/09 14:36:42;;;;;;;11.38;4.13;;;;;;;;;;4967935;28;20285;-68
2023/09/09 14:39:10;;;;;;;10.00;4.22;;;;;;;;;;4966313;28;20297;-68
2023/09/09 14:41:37;;;;;;;11.25;3.70;;;;;;;;;;4963512;28;20206;-69
2023/09/09 14:44:04;;;;;;;11.13;4.35;;;;;;;;;;4963806;28;20226;-69
2023/09/09 14:46:32;;;;;;;8.13;3.85;;;;;;;;;;4969386;28;20213;-68
2023/09/09 14:49:00;;;;;;;9.40;3.83;;;;;;;;;;4962680;28;20246;-69
2023/09/09 14:51:30;;;;;;;8.82;4.18;;;;;;;;;;4965761;28;20210;-69
2023/09/09 14:53:57;;;;;;;9.43;3.85;;;;;;;;;;4963060;28;20195;-68